Main page
METAR-TAF:

METAR-TAF

Airports :

Pearland Regional Airport

Houston / Pearland, Texas, United States

latitude: 29-31-16N, longitude: 095-14-31W, elevation: 43 ft

Current weather observation

The report was made 39 minutes ago, at 01:53 UTC
Wind 10 mph from the North
Temperature 52°F
Humidity 76%
Pressure 30.32 in. Hg
Visibility: 10 miles
Broken clouds at a height of 1900 ft
Overcast at a height of 2400 ft

METAR: KLVJ 110153Z AUTO 01009KT 10SM BKN019 OVC024 11/07 A3032 RMK AO2 SLP267 T01060067

Time: 20:32 (02:32 UTC)


TAF: missing

Weather observations and forecasts of more than 4000 airports (METAR and TAF reports).

The available stations are represented by yellow and red dots on the map.

Hover mouse over dot to see the name of the station.

Then click to see weather observations and forecasts.

To change the map : click on the green buttons with a black cross to zoom in, on the green button with a dash to zoom out, or on the green arrows for adjacent maps.


METAR-TAF: